Time;durP1;ratioP1;P1;durP2;ratioP2;P2;SDS_P1;SDS_P2;PMS_P1;PMS_P2;Temp;Humidity;BMP_temperature;BMP_pressure;BME280_temperature;BME280_humidity;BME280_pressure;Samples;Min_cycle;Max_cycle;Signal;HPM_P1;HPM_P2
2023/01/03 00:01:48;;;;;;;2.00;0.40;;;13.20;70.00;;;;;;2558907;54;20974;-84
2023/01/03 00:04:15;;;;;;;0.80;0.30;;;13.20;70.10;;;;;;2559314;54;20927;-83
2023/01/03 00:06:46;;;;;;;2.03;0.60;;;13.20;70.10;;;;;;2320396;55;20950;-84
2023/01/03 00:09:13;;;;;;;4.47;1.95;;;13.20;69.90;;;;;;2319357;55;20950;-84
2023/01/03 00:14:31;;;;;;;7.32;3.53;;;13.10;70.10;;;;;;2555530;54;20969;-84
2023/01/03 00:16:58;;;;;;;4.93;2.17;;;13.10;69.80;;;;;;2538347;54;20919;-83
2023/01/03 00:19:25;;;;;;;3.15;1.17;;;13.10;70.10;;;;;;2559299;54;21041;-83
2023/01/03 00:21:52;;;;;;;2.62;1.33;;;13.10;70.10;;;;;;2559230;54;20990;-83
2023/01/03 00:24:18;;;;;;;2.42;1.20;;;13.00;70.00;;;;;;2318832;55;20981;-83
2023/01/03 00:26:45;;;;;;;2.20;1.00;;;13.00;70.00;;;;;;2560251;54;20954;-84
2023/01/03 00:29:11;;;;;;;1.42;0.60;;;13.00;70.10;;;;;;2559083;54;20927;-84
2023/01/03 00:31:38;;;;;;;1.23;0.52;;;13.00;70.10;;;;;;2319265;55;20923;-83
2023/01/03 00:34:04;;;;;;;0.93;0.40;;;13.00;70.20;;;;;;2319277;55;21014;-84
2023/01/03 00:36:30;;;;;;;0.95;0.50;;;13.00;70.20;;;;;;2559980;54;20971;-83
2023/01/03 00:38:57;;;;;;;1.90;0.32;;;12.90;70.10;;;;;;2558770;54;20986;-83
2023/01/03 00:41:23;;;;;;;0.60;0.20;;;12.90;70.10;;;;;;2318950;55;21545;-83
2023/01/03 00:43:49;;;;;;;0.43;0.22;;;12.90;70.10;;;;;;2319629;55;20941;-83
2023/01/03 00:46:17;;;;;;;0.50;0.28;;;12.90;70.10;;;;;;2559198;54;21001;-84
2023/01/03 00:48:47;;;;;;;1.02;0.30;;;12.90;70.20;;;;;;2560308;54;21284;-84
2023/01/03 00:51:33;;;;;;;0.85;0.30;;;12.90;70.10;;;;;;2558149;54;20978;-82
2023/01/03 00:54:00;;;;;;;1.08;0.43;;;12.90;69.60;;;;;;2318511;55;21538;-83
2023/01/03 00:56:27;;;;;;;0.98;0.40;;;12.90;70.10;;;;;;2319307;55;21899;-84
2023/01/03 00:58:54;;;;;;;0.98;0.40;;;12.80;70.00;;;;;;2560148;54;20930;-84
2023/01/03 01:01:25;;;;;;;0.80;0.40;;;12.80;70.00;;;;;;2559853;54;20962;-86
2023/01/03 01:03:55;;;;;;;0.85;0.40;;;12.80;70.00;;;;;;2561049;54;20970;-85
2023/01/03 01:06:26;;;;;;;0.80;0.32;;;12.80;70.00;;;;;;2560890;54;20944;-84
2023/01/03 01:08:55;;;;;;;0.93;0.30;;;12.80;69.90;;;;;;2320466;55;20930;-85
2023/01/03 01:11:21;;;;;;;1.25;0.40;;;12.70;70.00;;;;;;2319007;55;21470;-85
2023/01/03 01:13:49;;;;;;;0.88;0.40;;;12.70;70.00;;;;;;2560430;54;20998;-85
2023/01/03 01:16:37;;;;;;;0.98;0.40;;;12.70;70.00;;;;;;2319397;55;20930;-85
2023/01/03 01:19:04;;;;;;;0.30;0.28;;;12.70;70.00;;;;;;2559980;54;20977;-86
2023/01/03 01:21:31;;;;;;;0.95;0.30;;;12.70;70.10;;;;;;2559849;54;20923;-86
2023/01/03 01:23:58;;;;;;;0.40;0.20;;;12.70;70.10;;;;;;2559365;54;20918;-86
2023/01/03 01:26:24;;;;;;;0.80;0.30;;;12.70;70.00;;;;;;2319148;55;21052;-85
2023/01/03 01:28:51;;;;;;;0.93;0.30;;;12.60;69.90;;;;;;2559425;54;21518;-86
2023/01/03 01:31:19;;;;;;;0.77;0.30;;;12.70;70.00;;;;;;2558645;54;21001;-86
2023/01/03 01:33:45;;;;;;;1.35;0.40;;;12.60;69.90;;;;;;2559878;54;21077;-85
2023/01/03 01:36:18;;;;;;;1.10;0.40;;;12.60;70.00;;;;;;2555645;54;21696;-85
2023/01/03 01:38:45;;;;;;;1.62;0.40;;;12.50;69.80;;;;;;2319391;55;20919;-86
2023/01/03 01:44:36;;;;;;;1.23;0.50;;;12.50;69.90;;;;;;2558833;54;20926;-85
2023/01/03 01:47:03;;;;;;;0.82;0.40;;;12.50;69.80;;;;;;2302395;55;20950;-86
2023/01/03 01:49:29;;;;;;;0.60;0.32;;;12.50;69.90;;;;;;2319006;55;20915;-85
2023/01/03 01:51:55;;;;;;;1.02;0.45;;;12.40;69.80;;;;;;2560124;54;21070;-84
2023/01/03 01:54:22;;;;;;;0.52;0.30;;;12.40;69.90;;;;;;2561685;54;20915;-85
2023/01/03 01:56:49;;;;;;;0.65;0.40;;;12.40;70.00;;;;;;2562566;54;20974;-85
2023/01/03 01:59:15;;;;;;;0.65;0.30;;;12.30;69.90;;;;;;2320537;55;20946;-85
2023/01/03 02:01:43;;;;;;;1.77;0.60;;;12.30;69.90;;;;;;2321385;55;20975;-86
2023/01/03 02:04:27;;;;;;;2.15;0.80;;;12.30;69.90;;;;;;2321078;55;20922;-85
2023/01/03 02:06:54;;;;;;;2.10;0.70;;;12.30;69.50;;;;;;2560845;54;20955;-84
2023/01/03 02:09:20;;;;;;;1.35;0.70;;;12.20;69.90;;;;;;2560737;54;21014;-85
2023/01/03 02:15:02;;;;;;;1.30;0.50;;;12.20;69.90;;;;;;2562171;54;21010;-84
2023/01/03 02:18:08;;;;;;;1.95;0.50;;;12.20;68.90;;;;;;2561863;54;21735;-84
2023/01/03 02:23:38;;;;;;;2.00;0.52;;;12.20;69.30;;;;;;2324879;55;20986;-85
2023/01/03 02:28:14;;;;;;;1.90;0.32;;;12.10;68.90;;;;;;2314283;55;21139;-86
2023/01/03 02:33:09;;;;;;;1.02;0.50;;;12.10;68.80;;;;;;2321228;55;21221;-85
2023/01/03 02:35:46;;;;;;;1.27;0.55;;;12.00;68.70;;;;;;2293798;54;21031;-85
2023/01/03 02:39:47;;;;;;;1.15;0.40;;;12.00;69.80;;;;;;2293533;54;20945;-84
2023/01/03 02:43:23;;;;;;;0.75;0.50;;;11.90;68.80;;;;;;2526661;54;20941;-84
2023/01/03 02:46:12;;;;;;;0.57;0.40;;;11.90;69.20;;;;;;2527478;54;20985;-84
2023/01/03 02:49:12;;;;;;;0.95;0.40;;;11.80;69.30;;;;;;2319924;53;20999;-85
2023/01/03 02:51:43;;;;;;;0.98;0.40;;;11.80;69.40;;;;;;2558732;53;21003;-84
2023/01/03 02:54:11;;;;;;;1.08;0.30;;;11.80;69.70;;;;;;2319798;55;20938;-85
2023/01/03 02:57:10;;;;;;;0.45;0.30;;;11.80;69.80;;;;;;2561659;54;20974;-84
2023/01/03 02:59:48;;;;;;;1.00;0.35;;;11.70;69.50;;;;;;2321098;55;21055;-84
2023/01/03 03:02:15;;;;;;;0.98;0.43;;;11.70;69.70;;;;;;2559903;54;20970;-84
2023/01/03 03:04:41;;;;;;;0.60;0.25;;;11.70;69.80;;;;;;2561124;54;21010;-85
2023/01/03 03:07:32;;;;;;;0.60;0.40;;;11.60;69.80;;;;;;2560039;54;20950;-84
2023/01/03 03:15:32;;;;;;;0.45;0.30;;;11.60;69.80;;;;;;2320509;55;21241;-84
2023/01/03 03:18:04;;;;;;;1.65;0.35;;;11.50;69.70;;;;;;2561167;54;21021;-84
2023/01/03 03:26:09;;;;;;;0.50;0.40;;;11.40;69.40;;;;;;2560678;54;20938;-84
2023/01/03 03:28:36;;;;;;;0.70;0.30;;;11.40;69.50;;;;;;2321053;55;20927;-84
2023/01/03 03:31:21;;;;;;;1.60;0.37;;;11.40;69.60;;;;;;2320555;55;20962;-84
2023/01/03 03:37:19;;;;;;;0.52;0.30;;;11.30;69.40;;;;;;2561022;54;21006;-84
2023/01/03 03:46:20;;;;;;;8.80;3.87;;;11.20;68.60;;;;;;2559958;53;20959;-83
2023/01/03 03:51:43;;;;;;;4.95;2.53;;;11.10;69.10;;;;;;2560288;53;20919;-83
2023/01/03 03:54:11;;;;;;;4.68;1.70;;;11.10;69.50;;;;;;2560132;53;20931;-84
2023/01/03 03:56:37;;;;;;;3.25;1.27;;;11.00;69.50;;;;;;2560705;53;20995;-83
2023/01/03 03:59:06;;;;;;;2.05;0.82;;;11.00;69.60;;;;;;2560394;53;21423;-84
2023/01/03 04:01:33;;;;;;;2.67;0.70;;;11.00;69.70;;;;;;2559718;53;20923;-84
2023/01/03 04:04:04;;;;;;;2.08;0.70;;;10.80;69.60;;;;;;2320533;54;20919;-86
2023/01/03 04:06:33;;;;;;;1.35;0.60;;;11.00;69.90;;;;;;2559969;53;20912;-84
2023/01/03 04:08:59;;;;;;;1.08;0.52;;;10.90;69.90;;;;;;2320731;54;21022;-85
2023/01/03 04:11:25;;;;;;;1.58;0.60;;;10.80;69.80;;;;;;2559761;53;20979;-84
2023/01/03 04:13:51;;;;;;;1.33;0.60;;;10.90;69.90;;;;;;2560635;53;20959;-84
2023/01/03 04:16:18;;;;;;;2.35;0.50;;;10.90;69.90;;;;;;2319674;54;20978;-84
2023/01/03 04:18:44;;;;;;;0.82;0.43;;;10.90;69.90;;;;;;2320752;54;20955;-84
2023/01/03 04:21:10;;;;;;;1.75;0.50;;;10.90;70.00;;;;;;2319610;54;20999;-84
2023/01/03 04:23:38;;;;;;;0.98;0.47;;;10.90;70.00;;;;;;2294698;54;20949;-83
2023/01/03 04:26:05;;;;;;;1.87;0.60;;;10.90;70.10;;;;;;2527786;54;20981;-84
2023/01/03 04:28:32;;;;;;;0.95;0.40;;;10.90;70.10;;;;;;2294061;55;21082;-84
2023/01/03 04:30:58;;;;;;;1.62;0.30;;;10.90;70.00;;;;;;2527821;54;20970;-84
2023/01/03 04:33:24;;;;;;;1.27;0.50;;;10.90;70.00;;;;;;2293441;55;20945;-84
2023/01/03 04:35:51;;;;;;;0.57;0.30;;;10.90;70.00;;;;;;2528632;54;20969;-84
2023/01/03 04:38:17;;;;;;;0.55;0.40;;;10.90;70.00;;;;;;2293263;55;20937;-85
2023/01/03 04:40:43;;;;;;;0.88;0.40;;;10.80;69.90;;;;;;2293702;55;20957;-84
2023/01/03 04:45:55;;;;;;;0.98;0.47;;;10.80;70.00;;;;;;2294197;55;20941;-84
2023/01/03 04:48:21;;;;;;;1.30;0.37;;;10.80;70.00;;;;;;2527973;54;20969;-84
2023/01/03 04:50:54;;;;;;;0.75;0.40;;;10.80;70.00;;;;;;2527814;54;20969;-83
2023/01/03 04:53:21;;;;;;;1.08;0.50;;;10.80;70.00;;;;;;2527880;54;21290;-85
2023/01/03 04:55:48;;;;;;;0.50;0.40;;;10.80;70.10;;;;;;2528446;54;21028;-83
2023/01/03 04:58:14;;;;;;;0.77;0.30;;;10.80;70.10;;;;;;2527460;54;20926;-85
2023/01/03 05:00:40;;;;;;;0.77;0.40;;;10.80;70.00;;;;;;2294212;55;20998;-84
2023/01/03 05:03:07;;;;;;;1.75;0.40;;;10.80;69.90;;;;;;2293187;55;20988;-83
2023/01/03 05:05:35;;;;;;;1.10;0.50;;;10.80;69.70;;;;;;2527941;54;21843;-84
2023/01/03 05:08:07;;;;;;;0.90;0.40;;;10.80;69.80;;;;;;2294055;55;21344;-84
2023/01/03 05:10:33;;;;;;;1.67;0.30;;;10.70;69.60;;;;;;2293804;55;20945;-85
2023/01/03 05:12:59;;;;;;;0.32;0.30;;;10.70;69.70;;;;;;2293740;55;20938;-83
2023/01/03 05:15:29;;;;;;;0.93;0.40;;;10.70;69.70;;;;;;2293556;55;21334;-84
2023/01/03 05:17:56;;;;;;;0.70;0.40;;;10.70;69.60;;;;;;2527495;54;20986;-83
2023/01/03 05:25:59;;;;;;;0.73;0.37;;;10.60;69.10;;;;;;2528186;54;20944;-83
2023/01/03 05:28:26;;;;;;;1.10;0.50;;;10.60;69.20;;;;;;2528591;54;20949;-84
2023/01/03 05:30:52;;;;;;;0.65;0.40;;;10.50;69.20;;;;;;2527121;54;20938;-83
2023/01/03 05:33:19;;;;;;;0.85;0.40;;;10.50;69.20;;;;;;2527146;54;20929;-84
2023/01/03 05:35:46;;;;;;;0.52;0.40;;;10.50;69.40;;;;;;2294462;55;21032;-84
2023/01/03 05:38:13;;;;;;;0.95;0.40;;;10.50;69.50;;;;;;2293610;55;20917;-84
2023/01/03 05:40:40;;;;;;;2.30;0.32;;;10.40;69.50;;;;;;2293662;55;20944;-84
2023/01/03 05:43:07;;;;;;;1.42;0.55;;;10.40;69.60;;;;;;2297329;55;21008;-84
2023/01/03 05:45:37;;;;;;;0.62;0.40;;;10.40;69.60;;;;;;2527465;54;21001;-84
2023/01/03 05:48:05;;;;;;;0.77;0.40;;;10.40;69.50;;;;;;2528171;54;21085;-84
2023/01/03 05:50:32;;;;;;;1.55;0.50;;;10.40;69.50;;;;;;2527954;54;20941;-83
2023/01/03 05:52:58;;;;;;;0.47;0.30;;;10.40;69.60;;;;;;2293547;55;20940;-84
2023/01/03 05:55:24;;;;;;;1.33;0.50;;;10.30;69.40;;;;;;2293024;55;21335;-84
2023/01/03 05:57:52;;;;;;;1.58;0.70;;;10.30;69.40;;;;;;2294146;55;21044;-84
2023/01/03 06:00:19;;;;;;;2.70;1.00;;;10.30;69.50;;;;;;2293114;55;21596;-84
2023/01/03 06:02:45;;;;;;;2.37;0.70;;;10.30;69.60;;;;;;2528060;54;21017;-84
2023/01/03 06:05:12;;;;;;;1.52;0.68;;;10.30;69.80;;;;;;2293587;55;20969;-83
2023/01/03 06:07:38;;;;;;;1.50;0.60;;;10.30;69.90;;;;;;2297944;55;20989;-84
2023/01/03 06:10:06;;;;;;;1.60;0.68;;;10.30;70.00;;;;;;2293347;55;20949;-84
2023/01/03 06:12:33;;;;;;;2.00;0.70;;;10.30;70.10;;;;;;2293492;55;20949;-84
2023/01/03 06:14:59;;;;;;;1.35;0.60;;;10.30;70.20;;;;;;2294313;55;21024;-85
2023/01/03 06:20:10;;;;;;;2.70;0.52;;;10.30;70.40;;;;;;2293585;55;20972;-85
2023/01/03 06:22:36;;;;;;;1.33;0.57;;;10.30;70.50;;;;;;2528220;54;21044;-83
2023/01/03 06:25:03;;;;;;;1.48;0.52;;;10.30;70.50;;;;;;2294253;55;20961;-84
2023/01/03 06:27:30;;;;;;;1.62;0.60;;;10.30;70.50;;;;;;2293295;55;21853;-84
2023/01/03 06:29:58;;;;;;;1.73;0.60;;;10.30;70.60;;;;;;2293820;55;21123;-84
2023/01/03 06:32:25;;;;;;;1.40;0.57;;;10.30;70.50;;;;;;2527183;54;20929;-83
2023/01/03 06:34:51;;;;;;;1.27;0.50;;;10.40;70.50;;;;;;2528324;54;20994;-84
2023/01/03 06:37:17;;;;;;;1.62;0.60;;;10.40;70.40;;;;;;2527586;54;20937;-84
2023/01/03 06:39:44;;;;;;;2.20;0.80;;;10.40;70.30;;;;;;2294408;55;20961;-83
2023/01/03 06:53:16;;;;;;;2.15;0.80;;;10.30;70.00;;;;;;2530042;54;20961;-84
2023/01/03 06:55:44;;;;;;;3.55;1.12;;;10.30;70.00;;;;;;2295129;55;21003;-83
2023/01/03 06:58:11;;;;;;;2.87;0.98;;;10.30;70.20;;;;;;2527851;54;21413;-83
2023/01/03 07:00:39;;;;;;;2.97;1.35;;;10.30;70.30;;;;;;2528453;54;21012;-85
2023/01/03 07:03:05;;;;;;;3.35;1.08;;;10.30;70.40;;;;;;2527728;54;21067;-83
2023/01/03 07:05:37;;;;;;;2.22;0.70;;;10.20;70.40;;;;;;2528543;54;20944;-85
2023/01/03 07:08:03;;;;;;;1.37;0.57;;;10.30;70.50;;;;;;2528176;54;20990;-85
2023/01/03 07:10:29;;;;;;;2.05;0.70;;;10.30;70.60;;;;;;2527848;54;21039;-84
2023/01/03 07:13:59;;;;;;;1.87;0.65;;;10.30;70.60;;;;;;2528284;54;21023;-84
2023/01/03 07:16:27;;;;;;;1.17;0.52;;;10.30;70.60;;;;;;2528086;54;20928;-84
2023/01/03 07:18:54;;;;;;;1.00;0.50;;;10.30;70.60;;;;;;2294531;55;20960;-85
2023/01/03 07:21:22;;;;;;;2.35;0.50;;;10.30;70.60;;;;;;2527987;54;21020;-84
2023/01/03 07:23:50;;;;;;;1.45;0.60;;;10.30;70.60;;;;;;2294719;54;20936;-83
2023/01/03 07:26:17;;;;;;;2.12;0.70;;;10.30;70.60;;;;;;2528350;54;21015;-84
2023/01/03 07:28:43;;;;;;;1.58;0.80;;;10.30;70.50;;;;;;2529117;54;21037;-84
2023/01/03 07:31:09;;;;;;;1.55;0.60;;;10.30;70.50;;;;;;2528629;54;20997;-85
2023/01/03 07:33:37;;;;;;;1.50;0.82;;;10.30;70.40;;;;;;2528973;54;21166;-84
2023/01/03 07:36:05;;;;;;;2.25;0.75;;;10.30;70.50;;;;;;2529093;54;20953;-83
2023/01/03 07:38:37;;;;;;;2.12;0.80;;;10.30;70.50;;;;;;2294917;54;21246;-83
2023/01/03 07:41:03;;;;;;;2.00;0.98;;;10.30;70.50;;;;;;2313946;54;20989;-84
2023/01/03 07:43:36;;;;;;;2.20;0.80;;;10.30;70.50;;;;;;2561271;53;20998;-84
2023/01/03 07:46:25;;;;;;;1.70;0.82;;;10.30;70.50;;;;;;2561680;53;21550;-84
2023/01/03 07:48:53;;;;;;;3.40;1.10;;;10.30;70.20;;;;;;2321480;54;20987;-84
2023/01/03 07:51:20;;;;;;;2.53;0.93;;;10.30;70.50;;;;;;2319665;54;21552;-84
2023/01/03 07:53:50;;;;;;;3.30;1.10;;;10.30;70.50;;;;;;2561229;53;20987;-85
2023/01/03 07:56:18;;;;;;;2.50;0.90;;;10.30;70.60;;;;;;2320828;54;20959;-85
2023/01/03 07:58:45;;;;;;;2.67;1.00;;;10.30;70.80;;;;;;2529085;54;20973;-83
2023/01/03 08:01:15;;;;;;;2.37;0.93;;;10.30;70.80;;;;;;2528127;54;20985;-84
2023/01/03 08:03:42;;;;;;;2.03;0.93;;;10.30;70.80;;;;;;2294717;55;20958;-85
2023/01/03 08:06:13;;;;;;;2.10;1.00;;;10.30;71.00;;;;;;2294161;55;21025;-85
2023/01/03 08:08:39;;;;;;;1.87;0.85;;;10.30;71.00;;;;;;2526667;54;20942;-85
2023/01/03 08:13:51;;;;;;;2.97;1.00;;;10.40;71.20;;;;;;2316302;54;20935;-85
2023/01/03 08:16:18;;;;;;;2.40;1.00;;;10.40;71.20;;;;;;2560251;53;20927;-84
2023/01/03 08:18:44;;;;;;;2.42;1.00;;;10.40;71.20;;;;;;2321678;54;21006;-84
2023/01/03 08:21:12;;;;;;;2.97;0.77;;;10.40;71.20;;;;;;2559787;53;21559;-84
2023/01/03 08:23:39;;;;;;;1.67;0.80;;;10.40;71.20;;;;;;2560901;53;21341;-84
2023/01/03 08:26:08;;;;;;;2.62;0.90;;;10.50;71.20;;;;;;2320899;54;20935;-84
2023/01/03 08:28:35;;;;;;;2.00;0.80;;;10.50;71.10;;;;;;2560535;53;20923;-84
2023/01/03 08:31:03;;;;;;;2.37;0.90;;;10.50;71.10;;;;;;2320632;54;20891;-84
2023/01/03 08:33:32;;;;;;;2.80;1.05;;;10.50;71.00;;;;;;2320178;54;20917;-84
2023/01/03 08:36:02;;;;;;;2.40;1.20;;;10.50;71.00;;;;;;2320750;54;20931;-84
2023/01/03 08:38:31;;;;;;;1.95;0.85;;;10.50;71.00;;;;;;2560181;53;20936;-84
2023/01/03 08:40:58;;;;;;;1.75;0.80;;;10.50;71.00;;;;;;2560492;53;20924;-84
2023/01/03 08:43:24;;;;;;;3.15;0.90;;;10.50;71.10;;;;;;2319937;54;21787;-83
2023/01/03 08:45:50;;;;;;;2.83;1.12;;;10.50;71.10;;;;;;2321730;54;21240;-85
2023/01/03 08:48:18;;;;;;;2.70;0.90;;;10.60;71.30;;;;;;2320561;54;20959;-85
2023/01/03 08:50:44;;;;;;;1.80;0.70;;;10.60;71.50;;;;;;2563779;53;20975;-84
2023/01/03 08:53:11;;;;;;;4.32;0.90;;;10.60;71.50;;;;;;2563435;53;20939;-85
2023/01/03 08:55:38;;;;;;;2.47;0.95;;;10.60;71.70;;;;;;2561702;53;20987;-84
2023/01/03 08:58:06;;;;;;;2.20;0.98;;;10.60;71.50;;;;;;2561810;53;20919;-86
2023/01/03 09:00:32;;;;;;;3.10;1.30;;;10.70;71.50;;;;;;2321388;54;20970;-86
2023/01/03 09:02:59;;;;;;;3.08;1.55;;;10.70;71.50;;;;;;2560422;53;20992;-84
2023/01/03 09:05:26;;;;;;;3.10;1.30;;;10.70;71.50;;;;;;2560839;53;21919;-84
2023/01/03 09:07:53;;;;;;;2.58;1.05;;;10.80;71.70;;;;;;2562115;53;21340;-84
2023/01/03 09:10:20;;;;;;;2.60;1.30;;;10.80;71.70;;;;;;2529497;54;20953;-85
2023/01/03 09:12:46;;;;;;;2.90;1.20;;;10.80;71.70;;;;;;2527008;54;21029;-85
2023/01/03 09:15:13;;;;;;;2.67;1.30;;;10.80;71.70;;;;;;2524291;54;20949;-84
2023/01/03 09:17:44;;;;;;;3.22;1.30;;;10.80;71.70;;;;;;2294990;55;20954;-84
2023/01/03 09:20:14;;;;;;;2.25;1.08;;;10.90;71.70;;;;;;2295387;55;20941;-86
2023/01/03 09:22:41;;;;;;;2.53;1.10;;;10.90;71.60;;;;;;2294999;55;20946;-84
2023/01/03 09:25:08;;;;;;;2.60;0.95;;;10.90;71.70;;;;;;2295181;55;20969;-86
2023/01/03 09:27:34;;;;;;;3.17;1.05;;;10.90;71.70;;;;;;2529104;54;20918;-87
2023/01/03 09:30:01;;;;;;;2.30;0.90;;;10.90;71.80;;;;;;2296541;55;20978;-85
2023/01/03 09:32:28;;;;;;;1.65;0.60;;;10.90;71.80;;;;;;2526163;54;22279;-84
2023/01/03 09:34:55;;;;;;;3.15;0.70;;;11.00;71.90;;;;;;2295188;55;20949;-85
2023/01/03 09:37:22;;;;;;;2.10;0.80;;;11.00;72.00;;;;;;2316507;55;20962;-85
2023/01/03 09:39:49;;;;;;;2.10;0.90;;;11.00;72.00;;;;;;2321477;55;20982;-85
2023/01/03 09:45:06;;;;;;;2.25;1.10;;;11.10;72.00;;;;;;2562318;54;20990;-87
2023/01/03 09:47:35;;;;;;;2.50;1.20;;;11.20;72.00;;;;;;2561596;54;20975;-85
2023/01/03 09:50:01;;;;;;;5.18;1.20;;;11.20;72.00;;;;;;2321722;55;20950;-85
2023/01/03 10:07:06;;;;;;;4.32;2.45;;;11.30;72.10;;;;;;2321374;53;20931;-86
2023/01/03 10:11:08;;;;;;;3.87;2.20;;;11.40;71.40;;;;;;2321880;53;21439;-82
2023/01/03 10:20:04;;;;;;;4.15;2.35;;;11.50;71.50;;;;;;2563199;53;20923;-86
2023/01/03 10:22:31;;;;;;;2.85;1.50;;;11.50;71.30;;;;;;2320371;53;20930;-85
2023/01/03 10:25:10;;;;;;;3.60;1.80;;;11.60;72.30;;;;;;2562479;53;21061;-86
2023/01/03 10:27:50;;;;;;;3.97;2.25;;;11.60;72.10;;;;;;2321480;53;20975;-87
2023/01/03 10:30:21;;;;;;;3.37;1.85;;;11.60;72.40;;;;;;2560606;53;20923;-86
2023/01/03 10:34:08;;;;;;;4.05;2.10;;;11.60;72.40;;;;;;2561143;53;20959;-85
2023/01/03 10:36:35;;;;;;;3.67;1.75;;;11.60;71.50;;;;;;2319747;53;21007;-85
2023/01/03 10:39:09;;;;;;;4.65;2.55;;;11.70;72.60;;;;;;2320377;53;21043;-83
2023/01/03 10:41:42;;;;;;;4.35;2.30;;;11.70;72.60;;;;;;2529581;53;21176;-86
2023/01/03 10:44:25;;;;;;;4.68;2.58;;;11.70;72.60;;;;;;2321479;53;20955;-84
2023/01/03 10:46:53;;;;;;;4.55;2.40;;;11.80;72.60;;;;;;2296539;55;20999;-86
2023/01/03 10:49:21;;;;;;;3.47;2.00;;;11.80;73.00;;;;;;2529938;54;20968;-86
2023/01/03 10:52:11;;;;;;;4.00;2.33;;;11.80;73.00;;;;;;2563188;53;21019;-83
2023/01/03 10:54:57;;;;;;;3.65;2.00;;;11.90;72.90;;;;;;2562918;53;20971;-85
2023/01/03 10:57:58;;;;;;;3.40;1.83;;;12.00;72.90;;;;;;2320690;53;21022;-85
2023/01/03 11:00:28;;;;;;;3.53;1.83;;;12.00;73.30;;;;;;2293365;55;20988;-84
2023/01/03 11:02:55;;;;;;;3.62;1.77;;;12.10;73.80;;;;;;2549046;54;20902;-84
2023/01/03 11:05:23;;;;;;;3.17;1.60;;;12.10;74.00;;;;;;2561255;54;21098;-85
2023/01/03 11:07:54;;;;;;;4.28;2.20;;;12.20;75.00;;;;;;2321691;55;20934;-85
2023/01/03 11:10:20;;;;;;;3.20;1.70;;;12.30;74.40;;;;;;2559403;54;21110;-85
2023/01/03 11:12:47;;;;;;;3.50;1.90;;;12.40;74.60;;;;;;2321135;55;21577;-85
2023/01/03 11:15:57;;;;;;;3.97;2.03;;;12.50;75.00;;;;;;2562257;54;20914;-84
2023/01/03 11:18:25;;;;;;;3.33;1.70;;;12.60;75.40;;;;;;2562040;54;21010;-84
2023/01/03 11:24:17;;;;;;;3.50;1.73;;;12.80;75.60;;;;;;2562309;54;20915;-84
2023/01/03 11:26:57;;;;;;;3.33;1.85;;;12.90;74.50;;;;;;2322443;55;20946;-85
2023/01/03 11:30:01;;;;;;;4.30;1.87;;;13.10;75.40;;;;;;2562555;54;20995;-85
2023/01/03 11:33:04;;;;;;;5.05;2.83;;;13.20;74.90;;;;;;2302318;55;20931;-85
2023/01/03 11:37:16;;;;;;;6.35;3.20;;;13.30;74.80;;;;;;2563201;54;21402;-85
2023/01/03 11:42:48;;;;;;;4.20;2.22;;;13.50;74.30;;;;;;2563290;54;20962;-85
2023/01/03 11:45:35;;;;;;;4.37;2.35;;;13.70;74.20;;;;;;2562990;54;21026;-84
2023/01/03 11:48:18;;;;;;;3.97;2.20;;;13.80;75.00;;;;;;2284567;55;2385463;-85
2023/01/03 11:51:06;;;;;;;3.72;2.08;;;13.80;75.20;;;;;;2563852;54;20950;-86
2023/01/03 11:53:37;;;;;;;3.15;1.60;;;13.90;75.10;;;;;;2563193;54;20935;-84
2023/01/03 11:57:09;;;;;;;5.75;2.67;;;14.00;75.00;;;;;;2563497;54;20925;-85
2023/01/03 11:59:57;;;;;;;3.67;2.23;;;14.00;74.60;;;;;;2563698;54;20955;-85
2023/01/03 12:03:00;;;;;;;3.90;2.28;;;14.10;74.30;;;;;;2563434;54;21043;-84
2023/01/03 12:05:50;;;;;;;3.87;2.20;;;14.20;73.90;;;;;;2563279;54;20974;-85
2023/01/03 12:08:46;;;;;;;4.25;2.47;;;14.20;73.70;;;;;;2562811;54;20954;-85
2023/01/03 12:12:51;;;;;;;3.67;2.17;;;14.30;73.50;;;;;;2323518;55;20923;-84
2023/01/03 12:15:25;;;;;;;4.55;2.00;;;14.30;72.80;;;;;;2322705;55;20939;-85
2023/01/03 12:18:08;;;;;;;3.83;2.20;;;14.40;74.20;;;;;;2563755;54;21010;-85
2023/01/03 12:20:37;;;;;;;4.57;2.50;;;14.40;73.60;;;;;;2563133;54;20979;-85
2023/01/03 12:26:35;;;;;;;4.70;2.70;;;14.40;74.20;;;;;;2549169;54;20997;-84
2023/01/03 12:29:11;;;;;;;4.12;1.80;;;14.50;72.90;;;;;;2563961;54;20955;-86
2023/01/03 12:31:45;;;;;;;4.62;2.33;;;14.60;74.10;;;;;;2323178;55;20981;-84
2023/01/03 12:34:33;;;;;;;5.25;2.42;;;14.60;74.10;;;;;;2564143;54;21817;-84
2023/01/03 12:37:32;;;;;;;4.07;2.62;;;14.70;73.50;;;;;;2296120;55;20996;-86
2023/01/03 12:46:56;;;;;;;3.65;2.17;;;14.70;73.60;;;;;;2531251;54;21298;-85
2023/01/03 12:49:43;;;;;;;3.53;1.60;;;14.80;73.70;;;;;;2529440;54;20983;-86
2023/01/03 12:52:10;;;;;;;3.65;2.03;;;14.90;73.90;;;;;;2295565;55;20912;-84
2023/01/03 12:54:49;;;;;;;4.12;2.28;;;15.00;74.30;;;;;;2531319;54;20951;-85
2023/01/03 12:59:24;;;;;;;4.07;2.15;;;15.00;74.10;;;;;;2296175;55;20936;-85
2023/01/03 13:01:57;;;;;;;3.62;1.98;;;15.10;72.50;;;;;;2532708;54;21080;-85
2023/01/03 13:04:34;;;;;;;3.83;1.87;;;15.10;73.90;;;;;;2530367;54;20944;-84
2023/01/03 13:07:23;;;;;;;4.20;2.12;;;15.10;73.30;;;;;;2530525;54;21130;-84
2023/01/03 13:09:55;;;;;;;4.25;1.98;;;15.20;73.70;;;;;;2530944;54;20953;-84
2023/01/03 13:12:30;;;;;;;3.45;1.95;;;15.20;73.80;;;;;;2530862;54;21117;-84
2023/01/03 13:15:21;;;;;;;3.97;2.25;;;15.20;73.80;;;;;;2296177;55;20896;-84
2023/01/03 13:17:49;;;;;;;3.33;2.03;;;15.20;73.40;;;;;;2296462;55;20984;-84
2023/01/03 13:20:35;;;;;;;3.70;2.42;;;15.30;73.80;;;;;;2529848;54;20925;-84
2023/01/03 13:23:29;;;;;;;4.00;2.20;;;15.30;73.00;;;;;;2555727;53;20911;-85
2023/01/03 13:27:14;;;;;;;3.83;2.03;;;15.40;73.10;;;;;;2563113;53;20994;-85
2023/01/03 13:30:17;;;;;;;4.28;2.00;;;15.50;72.50;;;;;;2562598;53;21250;-83
2023/01/03 13:33:02;;;;;;;3.80;1.70;;;15.50;72.90;;;;;;2562554;53;20927;-84
2023/01/03 13:36:11;;;;;;;2.95;1.50;;;15.60;73.80;;;;;;2321262;54;21086;-85
2023/01/03 13:38:37;;;;;;;3.30;1.55;;;15.60;72.50;;;;;;2323927;54;20955;-84
2023/01/03 13:41:08;;;;;;;4.95;2.03;;;15.70;74.10;;;;;;2322896;54;20955;-84
2023/01/03 13:43:43;;;;;;;3.78;1.75;;;15.70;73.80;;;;;;2322006;54;20935;-84
2023/01/03 13:46:23;;;;;;;3.20;1.50;;;15.80;73.90;;;;;;2562674;53;20923;-84
2023/01/03 13:49:00;;;;;;;2.97;1.60;;;15.80;73.00;;;;;;2322341;54;21314;-84
2023/01/03 13:52:06;;;;;;;3.05;1.37;;;15.90;73.00;;;;;;2561353;53;20908;-84
2023/01/03 13:54:35;;;;;;;2.65;1.30;;;15.90;72.90;;;;;;2297687;55;20986;-84
2023/01/03 13:57:04;;;;;;;2.90;1.30;;;16.00;73.60;;;;;;2530093;54;20968;-84
2023/01/03 13:59:41;;;;;;;3.33;1.30;;;16.00;73.50;;;;;;2295315;55;20941;-84
2023/01/03 14:02:40;;;;;;;4.15;1.52;;;16.00;73.10;;;;;;2294272;55;21045;-83
2023/01/03 14:05:37;;;;;;;3.10;1.50;;;16.10;72.60;;;;;;2313330;55;20967;-83
2023/01/03 14:08:28;;;;;;;2.78;1.23;;;16.10;72.20;;;;;;2298250;55;21057;-85
2023/01/03 14:11:30;;;;;;;2.47;1.15;;;16.20;72.20;;;;;;2559845;54;20911;-84
2023/01/03 14:14:04;;;;;;;2.33;1.02;;;16.20;72.10;;;;;;2305264;55;21360;-84
2023/01/03 14:16:41;;;;;;;2.90;1.15;;;16.30;73.00;;;;;;2562159;54;20943;-85
2023/01/03 14:19:31;;;;;;;2.53;1.00;;;16.30;73.30;;;;;;2562990;54;21025;-83
2023/01/03 14:22:13;;;;;;;2.05;0.90;;;16.30;72.10;;;;;;2322016;55;21009;-83
2023/01/03 14:24:57;;;;;;;2.00;1.00;;;16.30;73.10;;;;;;2564550;54;21030;-85
2023/01/03 14:27:28;;;;;;;2.60;0.98;;;16.40;73.10;;;;;;2323010;55;20927;-83
2023/01/03 14:29:54;;;;;;;2.50;1.05;;;16.40;72.60;;;;;;2563023;54;21002;-83
2023/01/03 14:32:33;;;;;;;2.97;1.05;;;16.40;72.60;;;;;;2562014;54;20954;-83
2023/01/03 14:35:00;;;;;;;2.20;1.00;;;16.40;72.20;;;;;;2323721;55;20953;-83
2023/01/03 14:37:27;;;;;;;2.95;1.10;;;16.40;72.10;;;;;;2561581;54;20918;-84
2023/01/03 14:39:57;;;;;;;2.87;1.00;;;16.50;72.10;;;;;;2323384;55;21276;-83
2023/01/03 14:42:25;;;;;;;2.70;1.15;;;16.50;71.60;;;;;;2564135;54;21355;-83
2023/01/03 14:45:01;;;;;;;2.67;1.15;;;16.50;71.90;;;;;;2562659;54;20978;-85
2023/01/03 14:47:38;;;;;;;4.35;1.20;;;16.50;71.60;;;;;;2563524;54;21035;-83
2023/01/03 14:50:06;;;;;;;2.42;1.20;;;16.50;71.40;;;;;;2323407;55;21313;-83
2023/01/03 14:52:41;;;;;;;2.70;1.20;;;16.50;71.40;;;;;;2561643;54;21269;-83
2023/01/03 14:55:17;;;;;;;2.70;0.90;;;16.50;70.80;;;;;;2562517;54;20990;-84
2023/01/03 14:57:45;;;;;;;2.90;1.30;;;16.40;71.00;;;;;;2323145;55;21042;-84
2023/01/03 15:00:29;;;;;;;2.78;1.17;;;16.40;71.00;;;;;;2562592;54;20931;-83
2023/01/03 15:02:58;;;;;;;2.97;1.48;;;16.40;70.20;;;;;;2323736;55;21296;-84
2023/01/03 15:05:38;;;;;;;4.55;2.22;;;16.30;70.60;;;;;;2564435;54;20942;-84
2023/01/03 15:08:23;;;;;;;3.17;1.40;;;16.30;70.00;;;;;;2564610;54;21254;-83
2023/01/03 15:11:07;;;;;;;2.80;1.33;;;16.30;69.60;;;;;;2565205;54;20954;-83
2023/01/03 15:18:39;;;;;;;3.30;1.50;;;16.10;69.10;;;;;;2565411;54;20955;-84